sensor_id;sensor_type;location;lat;lon;timestamp;temperature;humidity
64062;DHT22;50308;47.438;-1.528;2022-11-14T00:01:43;13.40;80.30
64062;DHT22;50308;47.438;-1.528;2022-11-14T00:04:10;13.40;80.30
64062;DHT22;50308;47.438;-1.528;2022-11-14T00:06:39;13.40;80.40
64062;DHT22;50308;47.438;-1.528;2022-11-14T00:09:06;13.30;80.30
64062;DHT22;50308;47.438;-1.528;2022-11-14T00:11:35;13.30;80.40
64062;DHT22;50308;47.438;-1.528;2022-11-14T00:14:01;13.40;80.50
64062;DHT22;50308;47.438;-1.528;2022-11-14T00:16:27;13.30;80.50
64062;DHT22;50308;47.438;-1.528;2022-11-14T00:18:52;13.30;80.20
64062;DHT22;50308;47.438;-1.528;2022-11-14T00:21:18;13.30;80.00
64062;DHT22;50308;47.438;-1.528;2022-11-14T00:23:43;13.30;80.30
64062;DHT22;50308;47.438;-1.528;2022-11-14T00:26:12;13.30;80.00
64062;DHT22;50308;47.438;-1.528;2022-11-14T00:28:38;13.30;80.40
64062;DHT22;50308;47.438;-1.528;2022-11-14T00:31:04;13.20;80.10
64062;DHT22;50308;47.438;-1.528;2022-11-14T00:33:30;13.20;80.20
64062;DHT22;50308;47.438;-1.528;2022-11-14T00:35:55;13.30;80.10
64062;DHT22;50308;47.438;-1.528;2022-11-14T00:38:21;13.20;80.10
64062;DHT22;50308;47.438;-1.528;2022-11-14T00:40:47;13.20;80.20
64062;DHT22;50308;47.438;-1.528;2022-11-14T00:43:13;13.20;80.00
64062;DHT22;50308;47.438;-1.528;2022-11-14T00:45:38;13.20;80.00
64062;DHT22;50308;47.438;-1.528;2022-11-14T00:48:04;13.10;79.80
64062;DHT22;50308;47.438;-1.528;2022-11-14T00:50:29;13.10;80.00
64062;DHT22;50308;47.438;-1.528;2022-11-14T00:52:55;13.10;80.00
64062;DHT22;50308;47.438;-1.528;2022-11-14T00:55:21;13.10;80.10
64062;DHT22;50308;47.438;-1.528;2022-11-14T00:57:46;13.10;79.90
64062;DHT22;50308;47.438;-1.528;2022-11-14T01:00:12;13.10;80.00
64062;DHT22;50308;47.438;-1.528;2022-11-14T01:02:38;13.10;79.90
64062;DHT22;50308;47.438;-1.528;2022-11-14T01:05:03;13.10;79.70
64062;DHT22;50308;47.438;-1.528;2022-11-14T01:07:29;13.10;79.80
64062;DHT22;50308;47.438;-1.528;2022-11-14T01:09:55;13.10;79.80
64062;DHT22;50308;47.438;-1.528;2022-11-14T01:12:20;13.10;79.70
64062;DHT22;50308;47.438;-1.528;2022-11-14T01:14:46;13.10;79.90
64062;DHT22;50308;47.438;-1.528;2022-11-14T01:17:11;13.10;79.90
64062;DHT22;50308;47.438;-1.528;2022-11-14T01:19:37;13.10;79.80
64062;DHT22;50308;47.438;-1.528;2022-11-14T01:22:02;13.00;79.80
64062;DHT22;50308;47.438;-1.528;2022-11-14T01:24:28;13.10;80.30
64062;DHT22;50308;47.438;-1.528;2022-11-14T01:26:54;13.10;79.70
64062;DHT22;50308;47.438;-1.528;2022-11-14T01:29:20;13.10;79.70
64062;DHT22;50308;47.438;-1.528;2022-11-14T01:31:46;13.10;79.80
64062;DHT22;50308;47.438;-1.528;2022-11-14T01:34:11;13.10;79.80
64062;DHT22;50308;47.438;-1.528;2022-11-14T01:36:37;13.10;79.60
64062;DHT22;50308;47.438;-1.528;2022-11-14T01:39:02;13.10;79.60
64062;DHT22;50308;47.438;-1.528;2022-11-14T01:41:28;13.10;80.00
64062;DHT22;50308;47.438;-1.528;2022-11-14T01:43:53;13.00;80.00
64062;DHT22;50308;47.438;-1.528;2022-11-14T01:49:01;13.10;79.50
64062;DHT22;50308;47.438;-1.528;2022-11-14T01:51:48;13.00;79.40
64062;DHT22;50308;47.438;-1.528;2022-11-14T01:54:19;13.00;80.00
64062;DHT22;50308;47.438;-1.528;2022-11-14T01:56:47;13.00;80.00
64062;DHT22;50308;47.438;-1.528;2022-11-14T01:59:16;13.10;80.00
64062;DHT22;50308;47.438;-1.528;2022-11-14T02:01:45;13.10;80.00
64062;DHT22;50308;47.438;-1.528;2022-11-14T02:04:12;13.10;79.70
64062;DHT22;50308;47.438;-1.528;2022-11-14T02:06:40;13.10;80.00
64062;DHT22;50308;47.438;-1.528;2022-11-14T02:09:06;13.10;80.00
64062;DHT22;50308;47.438;-1.528;2022-11-14T02:11:34;13.10;80.10
64062;DHT22;50308;47.438;-1.528;2022-11-14T02:14:00;13.20;80.00
64062;DHT22;50308;47.438;-1.528;2022-11-14T02:16:26;13.20;79.90
64062;DHT22;50308;47.438;-1.528;2022-11-14T02:18:51;13.10;80.00
64062;DHT22;50308;47.438;-1.528;2022-11-14T02:21:17;13.20;80.20
64062;DHT22;50308;47.438;-1.528;2022-11-14T02:23:43;13.20;80.00
64062;DHT22;50308;47.438;-1.528;2022-11-14T02:26:08;13.20;80.00
64062;DHT22;50308;47.438;-1.528;2022-11-14T02:28:34;13.20;80.00
64062;DHT22;50308;47.438;-1.528;2022-11-14T02:31:00;13.20;80.00
64062;DHT22;50308;47.438;-1.528;2022-11-14T02:33:25;13.30;80.30
64062;DHT22;50308;47.438;-1.528;2022-11-14T02:35:51;13.30;79.90
64062;DHT22;50308;47.438;-1.528;2022-11-14T02:38:16;13.20;80.10
64062;DHT22;50308;47.438;-1.528;2022-11-14T02:40:42;13.30;80.20
64062;DHT22;50308;47.438;-1.528;2022-11-14T02:43:07;13.30;79.90
64062;DHT22;50308;47.438;-1.528;2022-11-14T02:45:33;13.30;79.90
64062;DHT22;50308;47.438;-1.528;2022-11-14T02:47:58;13.30;80.00
64062;DHT22;50308;47.438;-1.528;2022-11-14T02:50:24;13.30;80.00
64062;DHT22;50308;47.438;-1.528;2022-11-14T02:52:49;13.30;80.00
64062;DHT22;50308;47.438;-1.528;2022-11-14T02:55:16;13.30;80.30
64062;DHT22;50308;47.438;-1.528;2022-11-14T02:57:41;13.40;80.00
64062;DHT22;50308;47.438;-1.528;2022-11-14T03:00:07;13.30;80.20
64062;DHT22;50308;47.438;-1.528;2022-11-14T03:02:33;13.40;80.40
64062;DHT22;50308;47.438;-1.528;2022-11-14T03:04:58;13.40;80.10
64062;DHT22;50308;47.438;-1.528;2022-11-14T03:07:24;13.40;80.10
64062;DHT22;50308;47.438;-1.528;2022-11-14T03:09:49;13.40;80.30
64062;DHT22;50308;47.438;-1.528;2022-11-14T03:12:16;13.40;80.30
64062;DHT22;50308;47.438;-1.528;2022-11-14T03:14:42;13.40;80.30
64062;DHT22;50308;47.438;-1.528;2022-11-14T03:17:08;13.40;80.40
64062;DHT22;50308;47.438;-1.528;2022-11-14T03:19:33;13.50;80.50
64062;DHT22;50308;47.438;-1.528;2022-11-14T03:21:59;13.50;80.30
64062;DHT22;50308;47.438;-1.528;2022-11-14T03:24:24;13.50;80.30
64062;DHT22;50308;47.438;-1.528;2022-11-14T03:26:50;13.50;80.20
64062;DHT22;50308;47.438;-1.528;2022-11-14T03:29:16;13.50;80.20
64062;DHT22;50308;47.438;-1.528;2022-11-14T03:32:05;13.60;80.30
64062;DHT22;50308;47.438;-1.528;2022-11-14T03:34:30;13.50;80.10
64062;DHT22;50308;47.438;-1.528;2022-11-14T03:36:59;13.60;80.20
64062;DHT22;50308;47.438;-1.528;2022-11-14T03:39:25;13.60;80.20
64062;DHT22;50308;47.438;-1.528;2022-11-14T03:41:52;13.60;80.20
64062;DHT22;50308;47.438;-1.528;2022-11-14T03:44:17;13.70;80.00
64062;DHT22;50308;47.438;-1.528;2022-11-14T03:46:43;13.60;80.30
64062;DHT22;50308;47.438;-1.528;2022-11-14T03:49:08;13.70;80.10
64062;DHT22;50308;47.438;-1.528;2022-11-14T03:51:34;13.70;80.10
64062;DHT22;50308;47.438;-1.528;2022-11-14T03:54:00;13.70;80.70
64062;DHT22;50308;47.438;-1.528;2022-11-14T03:56:25;13.80;80.00
64062;DHT22;50308;47.438;-1.528;2022-11-14T03:58:51;13.70;80.00
64062;DHT22;50308;47.438;-1.528;2022-11-14T04:01:16;13.70;80.30
64062;DHT22;50308;47.438;-1.528;2022-11-14T04:03:42;13.80;80.00
64062;DHT22;50308;47.438;-1.528;2022-11-14T04:06:07;13.70;80.10
64062;DHT22;50308;47.438;-1.528;2022-11-14T04:08:33;13.70;80.30
64062;DHT22;50308;47.438;-1.528;2022-11-14T04:10:58;13.70;80.20
64062;DHT22;50308;47.438;-1.528;2022-11-14T04:13:24;13.70;80.20
64062;DHT22;50308;47.438;-1.528;2022-11-14T04:15:54;13.60;80.10
64062;DHT22;50308;47.438;-1.528;2022-11-14T04:18:20;13.60;80.10
64062;DHT22;50308;47.438;-1.528;2022-11-14T04:20:45;13.60;80.10
64062;DHT22;50308;47.438;-1.528;2022-11-14T04:23:11;13.60;80.00
64062;DHT22;50308;47.438;-1.528;2022-11-14T04:25:37;13.60;81.10
64062;DHT22;50308;47.438;-1.528;2022-11-14T04:28:02;13.60;80.00
64062;DHT22;50308;47.438;-1.528;2022-11-14T04:30:28;13.70;80.10
64062;DHT22;50308;47.438;-1.528;2022-11-14T04:32:53;13.60;80.10
64062;DHT22;50308;47.438;-1.528;2022-11-14T04:35:19;13.70;80.10
64062;DHT22;50308;47.438;-1.528;2022-11-14T04:37:44;13.70;80.30
64062;DHT22;50308;47.438;-1.528;2022-11-14T04:40:10;13.70;80.10
64062;DHT22;50308;47.438;-1.528;2022-11-14T04:42:35;13.70;80.20
64062;DHT22;50308;47.438;-1.528;2022-11-14T04:45:01;13.80;80.30
64062;DHT22;50308;47.438;-1.528;2022-11-14T04:47:27;13.80;80.30
64062;DHT22;50308;47.438;-1.528;2022-11-14T04:52:18;13.80;80.50
64062;DHT22;50308;47.438;-1.528;2022-11-14T04:54:44;13.80;80.50
64062;DHT22;50308;47.438;-1.528;2022-11-14T04:57:09;13.80;80.30
64062;DHT22;50308;47.438;-1.528;2022-11-14T04:59:38;13.90;80.40
64062;DHT22;50308;47.438;-1.528;2022-11-14T05:02:04;13.80;80.60
64062;DHT22;50308;47.438;-1.528;2022-11-14T05:04:30;13.80;80.70
64062;DHT22;50308;47.438;-1.528;2022-11-14T05:06:57;13.80;80.90
64062;DHT22;50308;47.438;-1.528;2022-11-14T05:09:23;13.80;80.70
64062;DHT22;50308;47.438;-1.528;2022-11-14T05:11:49;13.80;80.80
64062;DHT22;50308;47.438;-1.528;2022-11-14T05:14:24;13.90;80.60
64062;DHT22;50308;47.438;-1.528;2022-11-14T05:17:14;14.00;80.40
64062;DHT22;50308;47.438;-1.528;2022-11-14T05:19:41;14.00;80.30
64062;DHT22;50308;47.438;-1.528;2022-11-14T05:22:07;14.10;80.20
64062;DHT22;50308;47.438;-1.528;2022-11-14T05:24:39;14.00;80.10
64062;DHT22;50308;47.438;-1.528;2022-11-14T05:27:06;14.00;80.50
64062;DHT22;50308;47.438;-1.528;2022-11-14T05:29:33;14.00;80.60
64062;DHT22;50308;47.438;-1.528;2022-11-14T05:32:02;14.00;80.70
64062;DHT22;50308;47.438;-1.528;2022-11-14T05:34:28;13.90;80.80
64062;DHT22;50308;47.438;-1.528;2022-11-14T05:36:53;14.00;80.70
64062;DHT22;50308;47.438;-1.528;2022-11-14T05:39:19;14.10;80.60
64062;DHT22;50308;47.438;-1.528;2022-11-14T05:41:45;14.10;80.50
64062;DHT22;50308;47.438;-1.528;2022-11-14T05:44:10;14.10;80.60
64062;DHT22;50308;47.438;-1.528;2022-11-14T05:46:36;14.10;80.50
64062;DHT22;50308;47.438;-1.528;2022-11-14T05:49:02;14.10;80.90
64062;DHT22;50308;47.438;-1.528;2022-11-14T05:51:27;14.10;80.90
64062;DHT22;50308;47.438;-1.528;2022-11-14T05:53:53;14.10;80.80
64062;DHT22;50308;47.438;-1.528;2022-11-14T05:56:19;14.20;80.60
64062;DHT22;50308;47.438;-1.528;2022-11-14T05:58:45;14.20;80.60
64062;DHT22;50308;47.438;-1.528;2022-11-14T06:01:12;14.20;80.90
64062;DHT22;50308;47.438;-1.528;2022-11-14T06:03:39;14.20;80.70
64062;DHT22;50308;47.438;-1.528;2022-11-14T06:06:05;14.20;80.80
64062;DHT22;50308;47.438;-1.528;2022-11-14T06:08:32;14.20;81.00
64062;DHT22;50308;47.438;-1.528;2022-11-14T06:11:04;14.10;80.80
64062;DHT22;50308;47.438;-1.528;2022-11-14T06:13:31;14.10;81.10
64062;DHT22;50308;47.438;-1.528;2022-11-14T06:15:58;14.10;81.20
64062;DHT22;50308;47.438;-1.528;2022-11-14T06:18:24;14.20;81.00
64062;DHT22;50308;47.438;-1.528;2022-11-14T06:20:49;14.20;80.90
64062;DHT22;50308;47.438;-1.528;2022-11-14T06:23:15;14.20;81.10
64062;DHT22;50308;47.438;-1.528;2022-11-14T06:25:41;14.10;81.20
64062;DHT22;50308;47.438;-1.528;2022-11-14T06:28:10;14.10;81.40
64062;DHT22;50308;47.438;-1.528;2022-11-14T06:30:36;14.10;81.30
64062;DHT22;50308;47.438;-1.528;2022-11-14T06:33:12;14.20;81.30
64062;DHT22;50308;47.438;-1.528;2022-11-14T06:35:42;14.10;81.20
64062;DHT22;50308;47.438;-1.528;2022-11-14T06:38:08;14.10;81.20
64062;DHT22;50308;47.438;-1.528;2022-11-14T06:40:38;14.20;81.10
64062;DHT22;50308;47.438;-1.528;2022-11-14T06:46:18;14.30;80.90
64062;DHT22;50308;47.438;-1.528;2022-11-14T06:48:44;14.20;81.30
64062;DHT22;50308;47.438;-1.528;2022-11-14T06:51:10;14.20;81.20
64062;DHT22;50308;47.438;-1.528;2022-11-14T06:53:36;14.10;81.50
64062;DHT22;50308;47.438;-1.528;2022-11-14T06:58:33;14.30;81.30
64062;DHT22;50308;47.438;-1.528;2022-11-14T07:01:05;14.30;81.20
64062;DHT22;50308;47.438;-1.528;2022-11-14T07:03:31;14.30;81.10
64062;DHT22;50308;47.438;-1.528;2022-11-14T07:05:58;14.40;81.10
64062;DHT22;50308;47.438;-1.528;2022-11-14T07:08:24;14.40;81.20
64062;DHT22;50308;47.438;-1.528;2022-11-14T07:10:50;14.40;81.30
64062;DHT22;50308;47.438;-1.528;2022-11-14T07:13:16;14.40;81.20
64062;DHT22;50308;47.438;-1.528;2022-11-14T07:15:48;14.40;81.30
64062;DHT22;50308;47.438;-1.528;2022-11-14T07:18:15;14.40;81.40
64062;DHT22;50308;47.438;-1.528;2022-11-14T07:20:41;14.30;81.40
64062;DHT22;50308;47.438;-1.528;2022-11-14T07:23:06;14.30;81.50
64062;DHT22;50308;47.438;-1.528;2022-11-14T07:25:32;14.30;81.60
64062;DHT22;50308;47.438;-1.528;2022-11-14T07:27:58;14.30;81.70
64062;DHT22;50308;47.438;-1.528;2022-11-14T07:30:23;14.40;81.50
64062;DHT22;50308;47.438;-1.528;2022-11-14T07:32:56;14.40;81.20
64062;DHT22;50308;47.438;-1.528;2022-11-14T07:35:22;14.40;81.30
64062;DHT22;50308;47.438;-1.528;2022-11-14T07:37:48;14.40;81.50
64062;DHT22;50308;47.438;-1.528;2022-11-14T07:40:14;14.40;81.60
64062;DHT22;50308;47.438;-1.528;2022-11-14T07:42:40;14.50;81.50
64062;DHT22;50308;47.438;-1.528;2022-11-14T07:45:06;14.50;81.70
64062;DHT22;50308;47.438;-1.528;2022-11-14T07:47:31;14.50;81.90
64062;DHT22;50308;47.438;-1.528;2022-11-14T07:49:57;14.50;82.00
64062;DHT22;50308;47.438;-1.528;2022-11-14T07:52:23;14.50;81.90
64062;DHT22;50308;47.438;-1.528;2022-11-14T07:54:49;14.50;82.10
64062;DHT22;50308;47.438;-1.528;2022-11-14T07:59:43;14.50;82.30
64062;DHT22;50308;47.438;-1.528;2022-11-14T08:02:12;14.50;82.40
64062;DHT22;50308;47.438;-1.528;2022-11-14T08:04:39;14.50;82.30
64062;DHT22;50308;47.438;-1.528;2022-11-14T08:07:05;14.50;82.30
64062;DHT22;50308;47.438;-1.528;2022-11-14T08:09:31;14.50;82.60
64062;DHT22;50308;47.438;-1.528;2022-11-14T08:11:56;14.50;82.40
64062;DHT22;50308;47.438;-1.528;2022-11-14T08:14:22;14.60;82.60
64062;DHT22;50308;47.438;-1.528;2022-11-14T08:16:49;14.50;82.50
64062;DHT22;50308;47.438;-1.528;2022-11-14T08:19:14;14.50;82.70
64062;DHT22;50308;47.438;-1.528;2022-11-14T08:21:41;14.50;82.60
64062;DHT22;50308;47.438;-1.528;2022-11-14T08:24:07;14.60;82.80
64062;DHT22;50308;47.438;-1.528;2022-11-14T08:26:32;14.60;82.60
64062;DHT22;50308;47.438;-1.528;2022-11-14T08:28:58;14.60;82.90
64062;DHT22;50308;47.438;-1.528;2022-11-14T08:31:24;14.60;82.80
64062;DHT22;50308;47.438;-1.528;2022-11-14T08:33:50;14.60;83.10
64062;DHT22;50308;47.438;-1.528;2022-11-14T08:36:16;14.60;82.90
64062;DHT22;50308;47.438;-1.528;2022-11-14T08:38:42;14.60;81.00
64062;DHT22;50308;47.438;-1.528;2022-11-14T08:41:07;14.70;80.30
64062;DHT22;50308;47.438;-1.528;2022-11-14T08:43:33;14.80;80.80
64062;DHT22;50308;47.438;-1.528;2022-11-14T08:46:00;14.70;81.40
64062;DHT22;50308;47.438;-1.528;2022-11-14T08:48:26;14.70;81.80
64062;DHT22;50308;47.438;-1.528;2022-11-14T08:50:52;14.80;81.40
64062;DHT22;50308;47.438;-1.528;2022-11-14T08:53:18;14.80;80.60
64062;DHT22;50308;47.438;-1.528;2022-11-14T08:55:44;14.80;80.70
64062;DHT22;50308;47.438;-1.528;2022-11-14T08:58:10;14.80;79.90
64062;DHT22;50308;47.438;-1.528;2022-11-14T09:00:36;14.90;79.80
64062;DHT22;50308;47.438;-1.528;2022-11-14T09:03:06;14.90;79.90
64062;DHT22;50308;47.438;-1.528;2022-11-14T09:05:32;14.90;79.90
64062;DHT22;50308;47.438;-1.528;2022-11-14T09:07:58;14.90;79.80
64062;DHT22;50308;47.438;-1.528;2022-11-14T09:10:24;14.90;80.00
64062;DHT22;50308;47.438;-1.528;2022-11-14T09:12:59;14.90;80.40
64062;DHT22;50308;47.438;-1.528;2022-11-14T09:15:28;14.90;80.30
64062;DHT22;50308;47.438;-1.528;2022-11-14T09:17:55;14.90;80.00
64062;DHT22;50308;47.438;-1.528;2022-11-14T09:20:24;14.90;80.00
64062;DHT22;50308;47.438;-1.528;2022-11-14T09:22:50;14.90;79.90
64062;DHT22;50308;47.438;-1.528;2022-11-14T09:25:19;15.00;80.00
64062;DHT22;50308;47.438;-1.528;2022-11-14T09:27:46;15.00;81.10
64062;DHT22;50308;47.438;-1.528;2022-11-14T09:30:12;15.00;80.00
64062;DHT22;50308;47.438;-1.528;2022-11-14T09:32:38;15.00;80.00
64062;DHT22;50308;47.438;-1.528;2022-11-14T09:35:04;15.00;80.00
64062;DHT22;50308;47.438;-1.528;2022-11-14T09:37:30;15.00;79.90
64062;DHT22;50308;47.438;-1.528;2022-11-14T09:39:55;15.00;79.90
64062;DHT22;50308;47.438;-1.528;2022-11-14T09:44:57;15.00;79.90
64062;DHT22;50308;47.438;-1.528;2022-11-14T09:47:33;15.10;80.00
64062;DHT22;50308;47.438;-1.528;2022-11-14T09:50:04;15.00;80.00
64062;DHT22;50308;47.438;-1.528;2022-11-14T09:52:43;15.10;79.90
64062;DHT22;50308;47.438;-1.528;2022-11-14T09:55:35;15.00;80.10
64062;DHT22;50308;47.438;-1.528;2022-11-14T09:58:01;15.10;80.20
64062;DHT22;50308;47.438;-1.528;2022-11-14T10:00:28;15.10;81.30
64062;DHT22;50308;47.438;-1.528;2022-11-14T10:16:14;15.10;86.40
64062;DHT22;50308;47.438;-1.528;2022-11-14T10:18:48;15.10;83.70
64062;DHT22;50308;47.438;-1.528;2022-11-14T10:21:27;15.10;86.80
64062;DHT22;50308;47.438;-1.528;2022-11-14T10:26:37;15.10;85.40
64062;DHT22;50308;47.438;-1.528;2022-11-14T10:34:48;15.10;82.80
64062;DHT22;50308;47.438;-1.528;2022-11-14T10:37:22;15.10;84.00
64062;DHT22;50308;47.438;-1.528;2022-11-14T10:39:51;15.10;85.60
64062;DHT22;50308;47.438;-1.528;2022-11-14T10:42:23;15.10;85.10
64062;DHT22;50308;47.438;-1.528;2022-11-14T10:44:56;15.10;86.00
64062;DHT22;50308;47.438;-1.528;2022-11-14T10:47:25;15.10;83.00
64062;DHT22;50308;47.438;-1.528;2022-11-14T10:49:53;15.20;83.60
64062;DHT22;50308;47.438;-1.528;2022-11-14T10:52:21;15.20;82.90
64062;DHT22;50308;47.438;-1.528;2022-11-14T10:54:58;15.20;85.10
64062;DHT22;50308;47.438;-1.528;2022-11-14T10:57:26;15.20;83.00
64062;DHT22;50308;47.438;-1.528;2022-11-14T10:59:53;15.20;82.90
64062;DHT22;50308;47.438;-1.528;2022-11-14T11:02:20;15.20;83.20
64062;DHT22;50308;47.438;-1.528;2022-11-14T11:04:51;15.20;83.10
64062;DHT22;50308;47.438;-1.528;2022-11-14T11:07:20;15.20;84.80
64062;DHT22;50308;47.438;-1.528;2022-11-14T11:10:05;15.20;84.80
64062;DHT22;50308;47.438;-1.528;2022-11-14T11:12:52;15.20;84.30
64062;DHT22;50308;47.438;-1.528;2022-11-14T11:15:20;15.20;85.80
64062;DHT22;50308;47.438;-1.528;2022-11-14T11:17:54;15.20;85.60
64062;DHT22;50308;47.438;-1.528;2022-11-14T11:22:49;15.20;85.80
64062;DHT22;50308;47.438;-1.528;2022-11-14T11:25:27;15.20;85.30
64062;DHT22;50308;47.438;-1.528;2022-11-14T11:28:11;15.20;84.10
64062;DHT22;50308;47.438;-1.528;2022-11-14T11:30:40;15.20;84.20
64062;DHT22;50308;47.438;-1.528;2022-11-14T11:35:47;15.20;83.70
64062;DHT22;50308;47.438;-1.528;2022-11-14T11:38:15;15.20;84.80
64062;DHT22;50308;47.438;-1.528;2022-11-14T11:40:44;15.20;83.50
64062;DHT22;50308;47.438;-1.528;2022-11-14T11:43:23;15.30;83.50
64062;DHT22;50308;47.438;-1.528;2022-11-14T11:45:52;15.30;83.60
64062;DHT22;50308;47.438;-1.528;2022-11-14T11:48:21;15.20;84.00
64062;DHT22;50308;47.438;-1.528;2022-11-14T11:50:48;15.20;83.90
64062;DHT22;50308;47.438;-1.528;2022-11-14T11:53:18;15.20;83.60
64062;DHT22;50308;47.438;-1.528;2022-11-14T11:55:50;15.20;82.70
64062;DHT22;50308;47.438;-1.528;2022-11-14T12:00:51;15.20;83.70
64062;DHT22;50308;47.438;-1.528;2022-11-14T12:03:20;15.20;83.70
64062;DHT22;50308;47.438;-1.528;2022-11-14T12:11:01;15.20;82.50
64062;DHT22;50308;47.438;-1.528;2022-11-14T12:26:23;15.30;83.90
64062;DHT22;50308;47.438;-1.528;2022-11-14T12:31:46;15.30;82.80
64062;DHT22;50308;47.438;-1.528;2022-11-14T12:34:21;15.20;83.20
64062;DHT22;50308;47.438;-1.528;2022-11-14T12:36:50;15.20;83.40
64062;DHT22;50308;47.438;-1.528;2022-11-14T12:39:24;15.20;83.00
64062;DHT22;50308;47.438;-1.528;2022-11-14T12:42:02;15.20;83.50
64062;DHT22;50308;47.438;-1.528;2022-11-14T12:44:31;15.30;83.40
64062;DHT22;50308;47.438;-1.528;2022-11-14T12:54:57;15.30;83.00
64062;DHT22;50308;47.438;-1.528;2022-11-14T12:57:47;15.30;83.20
64062;DHT22;50308;47.438;-1.528;2022-11-14T13:00:14;15.30;82.00
64062;DHT22;50308;47.438;-1.528;2022-11-14T13:02:46;15.30;81.90
64062;DHT22;50308;47.438;-1.528;2022-11-14T13:05:21;15.30;81.90
64062;DHT22;50308;47.438;-1.528;2022-11-14T13:08:09;15.30;81.00
64062;DHT22;50308;47.438;-1.528;2022-11-14T13:10:37;15.30;81.00
64062;DHT22;50308;47.438;-1.528;2022-11-14T13:13:06;15.30;81.00
64062;DHT22;50308;47.438;-1.528;2022-11-14T13:15:51;15.30;80.70
64062;DHT22;50308;47.438;-1.528;2022-11-14T13:18:48;15.30;80.50
64062;DHT22;50308;47.438;-1.528;2022-11-14T13:21:34;15.30;80.80
64062;DHT22;50308;47.438;-1.528;2022-11-14T13:24:13;15.30;81.00
64062;DHT22;50308;47.438;-1.528;2022-11-14T13:26:44;15.30;80.50
64062;DHT22;50308;47.438;-1.528;2022-11-14T13:32:51;15.30;79.60
64062;DHT22;50308;47.438;-1.528;2022-11-14T13:35:02;15.30;79.90
64062;DHT22;50308;47.438;-1.528;2022-11-14T13:39:58;15.30;79.30
64062;DHT22;50308;47.438;-1.528;2022-11-14T13:42:50;15.30;79.30
64062;DHT22;50308;47.438;-1.528;2022-11-14T13:45:22;15.30;79.60
64062;DHT22;50308;47.438;-1.528;2022-11-14T13:50:36;15.30;79.50
64062;DHT22;50308;47.438;-1.528;2022-11-14T13:53:15;15.30;79.20
64062;DHT22;50308;47.438;-1.528;2022-11-14T13:58:16;15.30;78.50
64062;DHT22;50308;47.438;-1.528;2022-11-14T14:00:56;15.30;78.50
64062;DHT22;50308;47.438;-1.528;2022-11-14T14:11:26;15.30;78.60
64062;DHT22;50308;47.438;-1.528;2022-11-14T14:19:40;15.30;78.50
64062;DHT22;50308;47.438;-1.528;2022-11-14T14:22:10;15.30;78.50
64062;DHT22;50308;47.438;-1.528;2022-11-14T14:30:02;15.30;78.40
64062;DHT22;50308;47.438;-1.528;2022-11-14T14:32:31;15.30;79.00
64062;DHT22;50308;47.438;-1.528;2022-11-14T14:34:59;15.30;77.90
64062;DHT22;50308;47.438;-1.528;2022-11-14T14:37:26;15.30;77.90
64062;DHT22;50308;47.438;-1.528;2022-11-14T14:39:59;15.30;77.80
64062;DHT22;50308;47.438;-1.528;2022-11-14T14:42:27;15.30;77.50
64062;DHT22;50308;47.438;-1.528;2022-11-14T14:44:54;15.30;77.90
64062;DHT22;50308;47.438;-1.528;2022-11-14T14:49:49;15.30;78.50
64062;DHT22;50308;47.438;-1.528;2022-11-14T14:52:36;15.30;77.80
64062;DHT22;50308;47.438;-1.528;2022-11-14T14:55:05;15.30;77.30
64062;DHT22;50308;47.438;-1.528;2022-11-14T14:57:33;15.30;77.50
64062;DHT22;50308;47.438;-1.528;2022-11-14T14:59:59;15.30;78.00
64062;DHT22;50308;47.438;-1.528;2022-11-14T15:02:25;15.30;77.50
64062;DHT22;50308;47.438;-1.528;2022-11-14T15:04:51;15.30;76.90
64062;DHT22;50308;47.438;-1.528;2022-11-14T15:07:20;15.30;77.30
64062;DHT22;50308;47.438;-1.528;2022-11-14T15:09:50;15.30;78.10
64062;DHT22;50308;47.438;-1.528;2022-11-14T15:12:16;15.30;76.60
64062;DHT22;50308;47.438;-1.528;2022-11-14T15:14:42;15.20;76.40
64062;DHT22;50308;47.438;-1.528;2022-11-14T15:17:08;15.30;76.50
64062;DHT22;50308;47.438;-1.528;2022-11-14T15:19:41;15.30;76.80
64062;DHT22;50308;47.438;-1.528;2022-11-14T15:24:35;15.20;75.60
64062;DHT22;50308;47.438;-1.528;2022-11-14T15:27:04;15.20;75.80
64062;DHT22;50308;47.438;-1.528;2022-11-14T15:29:31;15.20;76.60
64062;DHT22;50308;47.438;-1.528;2022-11-14T15:31:58;15.20;74.70
64062;DHT22;50308;47.438;-1.528;2022-11-14T15:37:06;15.20;74.30
64062;DHT22;50308;47.438;-1.528;2022-11-14T15:39:33;15.10;73.90
64062;DHT22;50308;47.438;-1.528;2022-11-14T15:44:40;15.20;73.60
64062;DHT22;50308;47.438;-1.528;2022-11-14T15:50:02;15.10;73.80
64062;DHT22;50308;47.438;-1.528;2022-11-14T15:54:59;15.10;73.90
64062;DHT22;50308;47.438;-1.528;2022-11-14T15:57:26;15.10;74.30
64062;DHT22;50308;47.438;-1.528;2022-11-14T15:59:52;15.10;74.80
64062;DHT22;50308;47.438;-1.528;2022-11-14T16:02:22;15.10;74.90
64062;DHT22;50308;47.438;-1.528;2022-11-14T16:04:50;15.10;75.00
64062;DHT22;50308;47.438;-1.528;2022-11-14T16:07:17;15.10;75.50
64062;DHT22;50308;47.438;-1.528;2022-11-14T16:09:43;15.00;75.40
64062;DHT22;50308;47.438;-1.528;2022-11-14T16:12:09;15.00;75.00
64062;DHT22;50308;47.438;-1.528;2022-11-14T16:14:35;15.00;75.10
64062;DHT22;50308;47.438;-1.528;2022-11-14T16:17:01;15.00;75.30
64062;DHT22;50308;47.438;-1.528;2022-11-14T16:19:27;15.00;75.50
64062;DHT22;50308;47.438;-1.528;2022-11-14T16:21:53;15.00;75.00
64062;DHT22;50308;47.438;-1.528;2022-11-14T16:24:23;15.00;74.60
64062;DHT22;50308;47.438;-1.528;2022-11-14T16:26:50;14.90;74.60
64062;DHT22;50308;47.438;-1.528;2022-11-14T16:29:17;14.90;75.50
64062;DHT22;50308;47.438;-1.528;2022-11-14T16:31:42;14.80;75.90
64062;DHT22;50308;47.438;-1.528;2022-11-14T16:34:13;14.80;75.90
64062;DHT22;50308;47.438;-1.528;2022-11-14T16:36:40;14.70;76.10
64062;DHT22;50308;47.438;-1.528;2022-11-14T16:39:06;14.60;76.40
64062;DHT22;50308;47.438;-1.528;2022-11-14T16:41:36;14.50;76.60
64062;DHT22;50308;47.438;-1.528;2022-11-14T16:44:03;14.50;76.70
64062;DHT22;50308;47.438;-1.528;2022-11-14T16:46:29;14.40;76.80
64062;DHT22;50308;47.438;-1.528;2022-11-14T16:48:54;14.40;77.00
64062;DHT22;50308;47.438;-1.528;2022-11-14T16:51:20;14.30;76.90
64062;DHT22;50308;47.438;-1.528;2022-11-14T16:53:47;14.30;77.10
64062;DHT22;50308;47.438;-1.528;2022-11-14T16:56:13;14.20;77.30
64062;DHT22;50308;47.438;-1.528;2022-11-14T16:58:40;14.20;77.60
64062;DHT22;50308;47.438;-1.528;2022-11-14T17:01:07;14.20;77.60
64062;DHT22;50308;47.438;-1.528;2022-11-14T17:03:35;14.10;77.60
64062;DHT22;50308;47.438;-1.528;2022-11-14T17:06:06;14.20;77.90
64062;DHT22;50308;47.438;-1.528;2022-11-14T17:08:32;14.10;77.50
64062;DHT22;50308;47.438;-1.528;2022-11-14T17:10:58;14.10;77.80
64062;DHT22;50308;47.438;-1.528;2022-11-14T17:13:27;14.10;77.80
64062;DHT22;50308;47.438;-1.528;2022-11-14T17:15:55;14.10;77.40
64062;DHT22;50308;47.438;-1.528;2022-11-14T17:18:24;14.10;77.50
64062;DHT22;50308;47.438;-1.528;2022-11-14T17:20:50;14.10;77.60